createdAt,value
2023-03-17T00:01:08.229Z,3.35
2023-03-17T00:04:12.537Z,4.15
2023-03-17T00:07:18.205Z,3.78
2023-03-17T00:10:25.223Z,4.07
2023-03-17T00:13:30.811Z,3.55
2023-03-17T00:16:38.150Z,3.40
2023-03-17T00:19:42.637Z,3.95
2023-03-17T00:22:45.617Z,3.20
2023-03-17T00:25:49.858Z,4.03
2023-03-17T00:28:54.509Z,4.65
2023-03-17T00:31:57.867Z,5.10
2023-03-17T00:35:00.837Z,4.80
2023-03-17T00:38:04.072Z,4.68
2023-03-17T00:41:09.986Z,4.72
2023-03-17T00:44:14.470Z,5.25
2023-03-17T00:47:17.453Z,3.85
2023-03-17T00:50:22.551Z,4.93
2023-03-17T00:53:25.870Z,5.50
2023-03-17T00:56:28.649Z,5.28
2023-03-17T00:59:39.212Z,4.80
2023-03-17T01:02:46.934Z,4.47
2023-03-17T01:05:51.586Z,4.22
2023-03-17T01:08:55.507Z,4.93
2023-03-17T01:12:00.664Z,3.80
2023-03-17T01:15:03.326Z,3.92
2023-03-17T01:18:06.281Z,5.25
2023-03-17T01:21:09.462Z,4.57
2023-03-17T01:24:12.853Z,4.05
2023-03-17T01:27:16.096Z,4.43
2023-03-17T01:30:22.528Z,4.60
2023-03-17T01:33:26.469Z,4.28
2023-03-17T01:36:29.351Z,4.35
2023-03-17T01:39:33.532Z,4.30
2023-03-17T01:42:36.592Z,4.37
2023-03-17T01:46:17.257Z,5.22
2023-03-17T01:49:33.141Z,4.55
2023-03-17T01:52:39.868Z,4.78
2023-03-17T01:55:45.542Z,4.47
2023-03-17T01:58:51.971Z,3.62
2023-03-17T02:02:02.953Z,4.13
2023-03-17T02:05:09.490Z,4.87
2023-03-17T02:08:16.463Z,3.95
2023-03-17T02:11:21.065Z,4.00
2023-03-17T02:14:23.825Z,4.35
2023-03-17T02:17:28.374Z,4.62
2023-03-17T02:20:31.130Z,2.97
2023-03-17T02:23:34.124Z,3.10
2023-03-17T02:26:37.842Z,4.80
2023-03-17T02:29:42.026Z,3.40
2023-03-17T02:32:44.874Z,4.10
2023-03-17T02:35:47.883Z,4.82
2023-03-17T02:38:52.868Z,3.58
2023-03-17T02:41:56.128Z,4.00
2023-03-17T02:44:58.757Z,4.60
2023-03-17T02:48:02.713Z,4.35
2023-03-17T02:51:06.180Z,3.50
2023-03-17T02:54:09.112Z,4.22
2023-03-17T02:57:11.906Z,3.60
2023-03-17T03:00:15.527Z,3.83
2023-03-17T03:03:18.192Z,4.30
2023-03-17T03:06:21.305Z,4.37
2023-03-17T03:09:24.310Z,3.67
2023-03-17T03:12:27.256Z,3.20
2023-03-17T03:15:29.983Z,3.92
2023-03-17T03:18:33.029Z,2.92
2023-03-17T03:21:36.717Z,3.85
2023-03-17T03:24:39.677Z,4.20
2023-03-17T03:27:42.225Z,3.65
2023-03-17T03:30:47.334Z,4.75
2023-03-17T03:33:50.705Z,4.85
2023-03-17T03:36:53.649Z,4.00
2023-03-17T03:39:56.348Z,3.37
2023-03-17T03:42:59.329Z,3.25
2023-03-17T03:46:02.385Z,4.75
2023-03-17T03:49:05.667Z,4.47
2023-03-17T03:52:08.888Z,4.55
2023-03-17T03:55:11.800Z,4.05
2023-03-17T03:58:14.635Z,3.87
2023-03-17T04:01:18.150Z,3.25
2023-03-17T04:04:21.767Z,4.22
2023-03-17T04:07:24.775Z,3.95
2023-03-17T04:10:28.005Z,4.15
2023-03-17T04:13:30.830Z,3.62
2023-03-17T04:16:33.838Z,3.42
2023-03-17T04:19:37.492Z,3.55
2023-03-17T04:22:42.230Z,3.75
2023-03-17T04:25:45.127Z,3.28
2023-03-17T04:28:47.927Z,4.10
2023-03-17T04:31:50.761Z,2.40
2023-03-17T04:34:53.741Z,3.72
2023-03-17T04:37:56.512Z,3.92
2023-03-17T04:40:59.818Z,2.25
2023-03-17T04:44:02.883Z,3.42
2023-03-17T04:47:06.016Z,3.15
2023-03-17T04:50:09.861Z,2.45
2023-03-17T04:53:12.827Z,2.90
2023-03-17T04:56:16.235Z,3.78
2023-03-17T04:59:19.606Z,3.28
2023-03-17T05:02:22.796Z,3.67
2023-03-17T05:05:26.020Z,4.03
2023-03-17T05:08:29.057Z,2.97
2023-03-17T05:11:32.280Z,2.67
2023-03-17T05:14:35.051Z,3.75
2023-03-17T05:17:37.914Z,2.97
2023-03-17T05:20:40.792Z,3.78
2023-03-17T05:23:43.670Z,3.15
2023-03-17T05:26:46.451Z,3.90
2023-03-17T05:29:49.852Z,4.00
2023-03-17T05:32:52.648Z,3.35
2023-03-17T05:35:56.237Z,3.67
2023-03-17T05:38:59.017Z,3.20
2023-03-17T05:42:01.874Z,3.53
2023-03-17T05:45:05.898Z,4.05
2023-03-17T05:48:08.800Z,4.65
2023-03-17T05:51:11.489Z,3.47
2023-03-17T05:54:14.652Z,3.20
2023-03-17T05:57:17.425Z,3.12
2023-03-17T06:00:21.637Z,3.35
2023-03-17T06:03:24.627Z,4.28
2023-03-17T06:06:27.981Z,3.97
2023-03-17T06:09:31.551Z,3.12
2023-03-17T06:12:34.368Z,3.45
2023-03-17T06:15:37.836Z,3.97
2023-03-17T06:18:41.103Z,3.60
2023-03-17T06:21:44.072Z,4.28
2023-03-17T06:24:46.648Z,4.20
2023-03-17T06:27:54.466Z,4.32
2023-03-17T06:30:56.983Z,4.73
2023-03-17T06:34:00.301Z,3.97
2023-03-17T06:37:02.925Z,4.43
2023-03-17T06:40:10.193Z,5.15
2023-03-17T06:43:13.481Z,4.65
2023-03-17T06:46:16.662Z,4.05
2023-03-17T06:49:19.667Z,4.53
2023-03-17T06:52:23.003Z,4.18
2023-03-17T06:55:25.857Z,3.62
2023-03-17T06:58:28.602Z,3.95
2023-03-17T07:01:31.599Z,3.65
2023-03-17T07:04:37.534Z,4.22
2023-03-17T07:07:41.557Z,3.87
2023-03-17T07:10:45.818Z,4.30
2023-03-17T07:13:48.458Z,3.58
2023-03-17T07:16:51.350Z,4.78
2023-03-17T07:19:53.971Z,4.45
2023-03-17T07:22:57.321Z,4.15
2023-03-17T07:25:59.861Z,4.70
2023-03-17T07:29:02.830Z,4.18
2023-03-17T07:32:07.146Z,3.87
2023-03-17T07:35:10.037Z,4.00
2023-03-17T07:38:13.090Z,3.85
2023-03-17T07:41:16.008Z,4.15
2023-03-17T07:44:19.674Z,4.12
2023-03-17T07:47:22.869Z,4.07
2023-03-17T07:50:25.492Z,4.65
2023-03-17T07:53:28.445Z,4.57
2023-03-17T07:56:32.283Z,4.80
2023-03-17T07:59:35.291Z,5.12
2023-03-17T08:02:37.959Z,4.32
2023-03-17T08:05:41.113Z,5.97
2023-03-17T08:08:43.731Z,3.97
2023-03-17T08:11:46.868Z,5.03
2023-03-17T08:14:49.609Z,4.30
2023-03-17T08:17:56.046Z,5.72
2023-03-17T08:20:58.807Z,4.40
2023-03-17T08:24:01.733Z,5.22
2023-03-17T08:27:04.266Z,3.78
2023-03-17T08:30:07.888Z,4.20
2023-03-17T08:33:11.100Z,3.83
2023-03-17T08:36:14.173Z,3.60
2023-03-17T08:39:17.217Z,4.22
2023-03-17T08:42:20.306Z,2.78
2023-03-17T08:45:23.319Z,3.17
2023-03-17T08:48:26.233Z,3.58
2023-03-17T08:51:32.173Z,2.40
2023-03-17T08:54:35.895Z,2.10
2023-03-17T08:57:38.684Z,2.25
2023-03-17T09:00:41.596Z,2.58
2023-03-17T09:03:45.248Z,2.40
2023-03-17T09:07:02.387Z,2.35
2023-03-17T09:10:08.042Z,1.87
2023-03-17T09:13:11.638Z,2.37
2023-03-17T09:16:16.216Z,1.70
2023-03-17T09:19:19.564Z,2.12
2023-03-17T09:22:22.318Z,2.17
2023-03-17T09:25:25.679Z,2.97
2023-03-17T09:28:29.224Z,2.33
2023-03-17T09:31:32.948Z,2.47
2023-03-17T09:34:35.913Z,2.65
2023-03-17T09:37:39.092Z,2.58
2023-03-17T09:40:57.819Z,2.28
2023-03-17T09:44:28.758Z,3.00
2023-03-17T09:48:08.398Z,2.03
2023-03-17T09:51:14.365Z,2.28
2023-03-17T09:54:32.589Z,1.70
2023-03-17T09:57:38.115Z,2.80
2023-03-17T10:00:41.028Z,2.35
2023-03-17T10:03:45.139Z,2.70
2023-03-17T10:06:49.655Z,2.15
2023-03-17T10:10:10.526Z,2.70
2023-03-17T10:13:41.640Z,2.40
2023-03-17T10:17:13.682Z,2.37
2023-03-17T10:20:27.559Z,3.15
2023-03-17T10:23:34.050Z,2.95
2023-03-17T10:26:44.356Z,2.95
2023-03-17T10:29:48.619Z,2.70
2023-03-17T10:32:53.811Z,2.80
2023-03-17T10:35:56.673Z,2.62
2023-03-17T10:38:59.931Z,2.80
2023-03-17T10:42:22.631Z,2.78
2023-03-17T10:45:32.466Z,2.83
2023-03-17T10:48:37.988Z,2.87
2023-03-17T10:51:41.424Z,3.10
2023-03-17T10:54:48.508Z,3.47
2023-03-17T10:57:58.744Z,2.67
2023-03-17T11:01:16.379Z,2.67
2023-03-17T11:04:49.215Z,2.90
2023-03-17T11:08:14.987Z,2.80
2023-03-17T11:11:28.446Z,2.47
2023-03-17T11:14:32.060Z,3.00
2023-03-17T11:17:58.807Z,3.12
2023-03-17T11:21:16.077Z,3.40
2023-03-17T11:24:31.428Z,3.40
2023-03-17T11:27:38.916Z,2.95
2023-03-17T11:30:50.603Z,3.10
2023-03-17T11:34:09.106Z,2.97
2023-03-17T11:37:30.225Z,3.33
2023-03-17T11:40:40.492Z,3.15
2023-03-17T11:44:18.715Z,3.75
2023-03-17T11:47:46.837Z,3.10
2023-03-17T11:50:57.935Z,3.15
2023-03-17T11:54:06.647Z,3.22
2023-03-17T11:57:32.277Z,2.97
2023-03-17T12:00:45.614Z,2.97
2023-03-17T12:03:58.814Z,3.53
2023-03-17T12:07:31.423Z,3.05
2023-03-17T12:10:43.892Z,3.58
2023-03-17T12:13:49.749Z,3.70
2023-03-17T12:17:02.362Z,3.67
2023-03-17T12:20:10.338Z,3.40
2023-03-17T12:23:38.272Z,3.40
2023-03-17T12:26:43.775Z,3.40
2023-03-17T12:29:53.536Z,3.47
2023-03-17T12:33:06.661Z,3.50
2023-03-17T12:36:15.254Z,3.53
2023-03-17T12:39:33.008Z,3.40
2023-03-17T12:43:23.920Z,3.55
2023-03-17T12:46:42.009Z,3.50
2023-03-17T12:49:53.874Z,3.33
2023-03-17T12:53:08.691Z,3.62
2023-03-17T12:56:31.252Z,3.30
2023-03-17T12:59:36.464Z,3.50
2023-03-17T13:02:39.906Z,2.95
2023-03-17T13:05:48.149Z,3.08
2023-03-17T13:08:53.491Z,3.12
2023-03-17T13:11:57.319Z,3.12
2023-03-17T13:15:01.172Z,3.10
2023-03-17T13:18:16.177Z,3.37
2023-03-17T13:21:25.010Z,3.50
2023-03-17T13:24:55.186Z,3.42
2023-03-17T13:28:12.150Z,3.40
2023-03-17T13:31:32.879Z,3.37
2023-03-17T13:34:46.561Z,3.30
2023-03-17T13:38:07.696Z,3.10
2023-03-17T13:41:29.311Z,3.17
2023-03-17T13:44:54.481Z,3.95
2023-03-17T13:48:32.133Z,3.55
2023-03-17T13:51:38.812Z,3.55
2023-03-17T13:54:59.735Z,3.30
2023-03-17T13:58:10.598Z,3.35
2023-03-17T14:01:15.474Z,3.40
2023-03-17T14:04:22.126Z,3.20
2023-03-17T14:07:36.184Z,3.47
2023-03-17T14:10:39.250Z,3.33
2023-03-17T14:14:05.984Z,3.08
2023-03-17T14:17:19.530Z,3.35
2023-03-17T14:20:27.457Z,3.30
2023-03-17T14:26:33.222Z,3.45
2023-03-17T14:29:37.291Z,3.25
2023-03-17T14:32:40.066Z,3.62
2023-03-17T14:35:43.646Z,3.12
2023-03-17T14:38:54.589Z,3.35
2023-03-17T14:42:02.162Z,3.30
2023-03-17T14:45:08.266Z,3.37
2023-03-17T14:48:16.500Z,3.28
2023-03-17T14:51:39.212Z,3.40
2023-03-17T14:54:42.253Z,3.05
2023-03-17T14:57:50.976Z,3.20
2023-03-17T15:01:33.711Z,3.35
2023-03-17T15:04:53.797Z,3.30
2023-03-17T15:07:56.823Z,3.35
2023-03-17T15:11:04.606Z,3.47
2023-03-17T15:14:23.055Z,3.10
2023-03-17T15:17:32.170Z,3.17
2023-03-17T15:20:35.460Z,2.95
2023-03-17T15:23:40.677Z,2.95
2023-03-17T15:26:43.615Z,2.87
2023-03-17T15:29:47.503Z,3.20
2023-03-17T15:32:57.692Z,3.20
2023-03-17T15:36:00.396Z,3.05
2023-03-17T15:39:03.596Z,3.03
2023-03-17T15:42:06.630Z,2.90
2023-03-17T15:45:09.819Z,3.10
2023-03-17T15:48:21.601Z,3.08
2023-03-17T15:51:24.492Z,3.35
2023-03-17T15:54:27.098Z,2.95
2023-03-17T15:57:30.094Z,3.30
2023-03-17T16:00:33.471Z,3.85
2023-03-17T16:03:37.737Z,3.03
2023-03-17T16:06:40.452Z,3.60
2023-03-17T16:09:44.517Z,3.47
2023-03-17T16:12:48.241Z,3.20
2023-03-17T16:15:57.701Z,3.60
2023-03-17T16:19:00.650Z,4.00
2023-03-17T16:22:03.456Z,3.50
2023-03-17T16:25:27.709Z,3.55
2023-03-17T16:28:32.306Z,3.65
2023-03-17T16:31:35.327Z,3.42
2023-03-17T16:34:38.750Z,3.37
2023-03-17T16:37:41.330Z,3.40
2023-03-17T16:40:50.186Z,3.67
2023-03-17T16:43:59.014Z,3.65
2023-03-17T16:47:02.038Z,2.65
2023-03-17T16:50:14.260Z,3.08
2023-03-17T16:53:17.633Z,3.10
2023-03-17T16:56:22.830Z,2.62
2023-03-17T16:59:31.136Z,3.25
2023-03-17T17:02:33.975Z,2.92
2023-03-17T17:05:40.555Z,2.58
2023-03-17T17:08:44.972Z,2.72
2023-03-17T17:11:47.842Z,3.47
2023-03-17T17:14:50.446Z,2.78
2023-03-17T17:18:18.262Z,3.05
2023-03-17T17:21:21.124Z,2.90
2023-03-17T17:24:24.215Z,2.62
2023-03-17T17:27:26.836Z,3.20
2023-03-17T17:30:30.911Z,3.10
2023-03-17T17:33:35.274Z,2.60
2023-03-17T17:36:38.116Z,2.95
2023-03-17T17:39:43.310Z,3.40
2023-03-17T17:42:46.539Z,3.08
2023-03-17T17:45:49.249Z,2.85
2023-03-17T17:48:52.347Z,2.75
2023-03-17T17:51:54.978Z,3.28
2023-03-17T17:54:57.855Z,2.72
2023-03-17T17:58:01.153Z,2.90
2023-03-17T18:01:06.795Z,3.05
2023-03-17T18:04:10.232Z,2.95
2023-03-17T18:07:12.854Z,3.33
2023-03-17T18:10:22.510Z,2.83
2023-03-17T18:13:25.512Z,3.08
2023-03-17T18:16:28.450Z,3.12
2023-03-17T18:19:32.037Z,3.08
2023-03-17T18:22:35.046Z,3.50
2023-03-17T18:25:37.907Z,2.67
2023-03-17T18:28:44.402Z,3.60
2023-03-17T18:31:52.092Z,3.12
2023-03-17T18:34:56.560Z,3.17
2023-03-17T18:38:00.337Z,2.80
2023-03-17T18:41:04.055Z,2.80
2023-03-17T18:44:07.542Z,3.28
2023-03-17T18:47:10.544Z,3.08
2023-03-17T18:50:15.592Z,2.67
2023-03-17T18:53:18.564Z,3.00
2023-03-17T18:56:23.319Z,2.40
2023-03-17T18:59:27.036Z,2.70
2023-03-17T19:02:29.929Z,2.85
2023-03-17T19:05:37.596Z,2.87
2023-03-17T19:08:40.794Z,2.58
2023-03-17T19:11:43.733Z,2.85
2023-03-17T19:14:46.333Z,2.65
2023-03-17T19:17:50.402Z,2.95
2023-03-17T19:20:54.878Z,2.40
2023-03-17T19:24:00.664Z,3.03
2023-03-17T19:27:04.057Z,2.70
2023-03-17T19:30:07.445Z,3.25
2023-03-17T19:33:10.300Z,3.42
2023-03-17T19:36:14.117Z,3.22
2023-03-17T19:39:17.003Z,3.03
2023-03-17T19:42:20.410Z,4.03
2023-03-17T19:45:24.045Z,3.53
2023-03-17T19:48:27.475Z,3.87
2023-03-17T19:51:30.734Z,3.37
2023-03-17T19:54:34.256Z,3.62
2023-03-17T19:57:36.890Z,3.90
2023-03-17T20:00:42.003Z,3.62
2023-03-17T20:03:44.840Z,4.32
2023-03-17T20:06:47.511Z,3.85
2023-03-17T20:09:50.989Z,4.85
2023-03-17T20:12:53.793Z,4.93
2023-03-17T20:15:57.917Z,6.65
2023-03-17T20:19:01.433Z,5.40
2023-03-17T20:22:04.957Z,6.18
2023-03-17T20:25:10.241Z,6.03
2023-03-17T20:28:13.529Z,5.25
2023-03-17T20:31:17.206Z,5.07
2023-03-17T20:34:20.825Z,5.62
2023-03-17T20:37:24.845Z,6.35
2023-03-17T20:40:28.572Z,5.32
2023-03-17T20:43:34.175Z,6.30
2023-03-17T20:46:37.245Z,5.55
2023-03-17T20:49:40.451Z,6.03
2023-03-17T20:52:43.830Z,5.55
2023-03-17T20:55:47.581Z,5.12
2023-03-17T20:58:53.335Z,5.50
2023-03-17T21:01:56.700Z,5.57
2023-03-17T21:04:59.597Z,5.50
2023-03-17T21:08:02.350Z,5.53
2023-03-17T21:11:08.021Z,5.25
2023-03-17T21:14:13.653Z,5.53
2023-03-17T21:17:18.087Z,5.22
2023-03-17T21:20:21.221Z,5.97
2023-03-17T21:23:24.155Z,6.18
2023-03-17T21:26:26.789Z,6.45
2023-03-17T21:29:32.256Z,5.87
2023-03-17T21:32:35.621Z,6.95
2023-03-17T21:35:38.554Z,5.65
2023-03-17T21:38:41.840Z,6.18
2023-03-17T21:41:45.013Z,5.62
2023-03-17T21:44:48.403Z,6.35
2023-03-17T21:47:51.545Z,6.43
2023-03-17T21:50:54.360Z,4.95
2023-03-17T21:53:57.792Z,5.03
2023-03-17T21:57:00.541Z,4.32
2023-03-17T22:00:06.333Z,4.50
2023-03-17T22:03:14.942Z,4.60
2023-03-17T22:06:18.968Z,4.70
2023-03-17T22:09:21.895Z,5.15
2023-03-17T22:12:24.786Z,4.50
2023-03-17T22:15:29.186Z,4.68
2023-03-17T22:18:32.734Z,3.87
2023-03-17T22:21:35.799Z,4.15
2023-03-17T22:24:38.805Z,4.50
2023-03-17T22:27:41.625Z,4.60
2023-03-17T22:30:45.545Z,4.90
2023-03-17T22:33:50.339Z,5.28
2023-03-17T22:36:53.178Z,4.55
2023-03-17T22:39:55.774Z,5.12
2023-03-17T22:43:00.192Z,3.90
2023-03-17T22:46:02.940Z,3.92
2023-03-17T22:49:06.005Z,4.10
2023-03-17T22:52:09.089Z,4.65
2023-03-17T22:55:12.673Z,5.12
2023-03-17T22:58:15.458Z,3.60
2023-03-17T23:01:19.288Z,3.45
2023-03-17T23:04:21.970Z,4.28
2023-03-17T23:07:24.870Z,4.22
2023-03-17T23:10:28.497Z,3.95
2023-03-17T23:13:31.535Z,4.05
2023-03-17T23:16:34.325Z,4.60
2023-03-17T23:19:37.450Z,4.28
2023-03-17T23:22:40.292Z,4.45
2023-03-17T23:25:44.024Z,4.82
2023-03-17T23:28:47.649Z,4.97
2023-03-17T23:31:50.752Z,5.40
2023-03-17T23:34:53.854Z,6.10
2023-03-17T23:37:57.107Z,6.50
2023-03-17T23:41:00.163Z,5.87
2023-03-17T23:44:04.254Z,6.55
2023-03-17T23:47:07.442Z,6.80
2023-03-17T23:50:11.716Z,5.87
2023-03-17T23:53:14.256Z,7.07
2023-03-17T23:56:17.096Z,7.47
2023-03-17T23:59:20.344Z,7.45
